Time;durP1;ratioP1;P1;durP2;ratioP2;P2;SDS_P1;SDS_P2;PMS_P1;PMS_P2;Temp;Humidity;BMP_temperature;BMP_pressure;BME280_temperature;BME280_humidity;BME280_pressure;Samples;Min_cycle;Max_cycle;Signal;HPM_P1;HPM_P2
2021/12/16 00:09:55;;;;;;;17.60;14.32;;;-1.00;91.60;-1.40;98515.00;;;;5013956;28;87376;-59
2021/12/16 00:32:31;;;;;;;15.45;12.98;;;-1.00;91.80;-1.50;98462.00;;;;5021822;28;88427;-60
2021/12/16 00:35:07;;;;;;;15.70;13.43;;;-1.10;91.70;-1.50;98477.00;;;;5021967;28;87409;-60
2021/12/16 00:37:33;;;;;;;18.02;13.55;;;-1.10;91.70;-1.50;98489.00;;;;5020359;28;88040;-60
2021/12/16 00:40:08;;;;;;;14.25;12.65;;;-1.10;91.70;-1.50;98468.00;;;;5020335;28;89355;-58
2021/12/16 00:56:09;;;;;;;16.23;12.45;;;-1.10;92.00;-1.60;98458.00;;;;5016746;28;87060;-59
2021/12/16 00:58:46;;;;;;;15.43;13.07;;;-1.20;92.00;-1.60;98433.00;;;;5021305;28;87345;-58
2021/12/16 01:52:01;;;;;;;11.13;9.90;;;-0.80;91.50;-1.20;98298.00;;;;5007698;28;87053;-62
2021/12/16 01:57:28;;;;;;;9.50;8.50;;;-0.80;91.40;-1.20;98280.00;;;;5020444;28;87569;-62
2021/12/16 02:00:05;;;;;;;10.55;9.45;;;-0.80;91.40;-1.20;98278.00;;;;4965017;28;87413;-62
2021/12/16 02:02:49;;;;;;;9.82;8.82;;;-0.80;91.30;-1.20;98270.00;;;;5020960;28;86550;-62
2021/12/16 02:05:51;;;;;;;10.85;9.80;;;-0.80;91.40;-1.20;98282.00;;;;5016166;28;88754;-62
2021/12/16 02:08:22;;;;;;;8.93;8.03;;;-0.70;91.30;-1.20;98285.00;;;;5019054;28;87396;-62
2021/12/16 02:11:12;;;;;;;9.95;8.95;;;-0.70;91.40;-1.20;98291.00;;;;5018211;28;88368;-62
2021/12/16 02:35:24;;;;;;;9.45;8.15;;;-0.80;91.60;-1.20;98241.00;;;;5018492;28;87253;-62
2021/12/16 02:37:49;;;;;;;8.98;8.07;;;-0.70;91.70;-1.10;98239.00;;;;5003723;28;89224;-62
2021/12/16 02:40:18;;;;;;;8.77;7.88;;;-0.70;91.70;-1.10;98230.00;;;;5010445;28;89405;-62
2021/12/16 02:43:04;;;;;;;9.27;8.48;;;-0.70;91.60;-1.10;98215.00;;;;5010607;28;87172;-60
2021/12/16 02:51:27;;;;;;;13.30;9.52;;;-0.70;91.50;-1.10;98203.00;;;;5019417;28;87291;-59
2021/12/16 02:54:02;;;;;;;8.80;7.90;;;-0.60;91.50;-1.10;98200.00;;;;5017142;28;87064;-59
2021/12/16 02:56:29;;;;;;;11.73;9.32;;;-0.70;91.60;-1.10;98203.00;;;;5027137;27;86433;-60
2021/12/16 02:58:57;;;;;;;8.50;7.68;;;-0.70;91.60;-1.10;98194.00;;;;5018892;28;88147;-60
2021/12/16 03:01:33;;;;;;;7.95;7.15;;;-0.70;91.70;-1.00;98192.00;;;;5018223;28;90654;-60
2021/12/16 03:04:05;;;;;;;8.77;7.20;;;-0.60;91.70;-1.00;98186.00;;;;5010593;28;87915;-60
2021/12/16 03:06:33;;;;;;;;;;;-0.60;91.60;-1.00;98183.00;;;;5018130;28;87402;-60
2021/12/16 03:09:03;;;;;;;8.25;7.45;;;-0.50;91.60;-0.90;98185.00;;;;5018929;28;89117;-60
2021/12/16 03:14:36;;;;;;;8.63;7.10;;;-0.60;91.40;-1.00;98170.00;;;;5000418;28;87694;-58
2021/12/16 03:17:18;;;;;;;8.05;7.25;;;-0.50;91.60;-0.90;98154.00;;;;5001654;28;87319;-62
2021/12/16 03:20:01;;;;;;;7.97;7.18;;;-0.50;91.60;-0.90;98156.00;;;;5016146;28;87958;-62
2021/12/16 03:25:37;;;;;;;7.20;6.45;;;-0.60;91.40;-1.00;98150.00;;;;5033541;28;87565;-61
2021/12/16 03:31:07;;;;;;;8.02;7.20;;;-0.50;91.70;-0.90;98148.00;;;;5007424;28;89471;-59
2021/12/16 03:36:29;;;;;;;8.07;7.28;;;-0.50;91.70;-0.90;98152.00;;;;5002227;28;87466;-59
2021/12/16 03:39:10;;;;;;;7.80;7.00;;;-0.60;91.60;-1.00;98134.00;;;;5000304;28;87423;-59
2021/12/16 03:41:37;;;;;;;7.95;7.15;;;-0.60;91.70;-1.00;98131.00;;;;5032035;28;89382;-59
2021/12/16 03:44:11;;;;;;;9.00;6.70;;;-0.60;91.80;-0.90;98110.00;;;;5005486;28;88077;-60
2021/12/16 03:46:45;;;;;;;8.80;7.45;;;-0.50;91.80;-0.90;98122.00;;;;5017852;28;87092;-60
2021/12/16 03:49:19;;;;;;;7.22;6.53;;;-0.50;91.70;-0.90;98123.00;;;;5016850;28;86607;-60
2021/12/16 03:51:48;;;;;;;9.05;8.15;;;-0.60;91.90;-0.90;98126.00;;;;5016668;28;88537;-60
2021/12/16 03:54:25;;;;;;;7.72;6.95;;;-0.60;91.90;-0.90;98119.00;;;;5017672;28;88748;-61
2021/12/16 03:56:58;;;;;;;10.63;8.40;;;-0.50;91.90;-1.00;98127.00;;;;5031690;28;88356;-62
2021/12/16 03:59:29;;;;;;;8.85;7.95;;;-0.50;92.00;-1.00;98137.00;;;;5030171;28;87565;-61
2021/12/16 04:02:12;;;;;;;8.85;7.53;;;-0.60;91.90;-1.00;98140.00;;;;5016446;28;89915;-61
2021/12/16 04:04:45;;;;;;;8.38;7.47;;;-0.60;92.00;-1.00;98131.00;;;;4994889;28;87814;-62
2021/12/16 04:07:11;;;;;;;10.18;8.35;;;-0.60;92.10;-1.00;98119.00;;;;4990642;28;87357;-61
2021/12/16 04:10:16;;;;;;;10.88;9.68;;;-0.60;92.10;-1.00;98120.00;;;;4997935;28;88461;-60
2021/12/16 04:12:42;;;;;;;8.70;7.80;;;-0.60;92.10;-0.90;98116.00;;;;5015955;28;90584;-60
2021/12/16 04:15:12;;;;;;;7.68;6.88;;;-0.50;92.20;-0.90;98116.00;;;;5002968;28;88517;-60
2021/12/16 04:17:45;;;;;;;9.10;8.20;;;-0.50;92.30;-0.90;98104.00;;;;4997535;28;87456;-60
2021/12/16 04:20:15;;;;;;;10.45;9.35;;;-0.50;92.10;-1.00;98096.00;;;;4997741;28;87258;-59
2021/12/16 04:22:45;;;;;;;9.27;8.38;;;-0.50;92.20;-0.90;98094.00;;;;5007932;28;88595;-61
2021/12/16 04:25:27;;;;;;;9.07;8.18;;;-0.50;92.40;-0.90;98087.00;;;;5037575;28;89238;-60
2021/12/16 04:28:00;;;;;;;8.25;7.18;;;-0.50;92.30;-0.90;98081.00;;;;5037941;28;87044;-60
2021/12/16 04:30:30;;;;;;;11.40;9.13;;;-0.50;92.40;-0.90;98081.00;;;;5023241;27;87292;-60
2021/12/16 04:32:58;;;;;;;10.52;9.30;;;-0.40;92.30;-0.90;98073.00;;;;5017416;28;88433;-60
2021/12/16 04:35:28;;;;;;;10.45;9.35;;;-0.50;92.20;-0.90;98062.00;;;;5016814;28;88328;-60
2021/12/16 04:37:55;;;;;;;9.02;8.13;;;-0.50;92.40;-0.80;98065.00;;;;5018596;28;87062;-62
2021/12/16 04:40:27;;;;;;;10.77;9.38;;;-0.40;92.60;-0.80;98063.00;;;;5017422;28;86707;-62
2021/12/16 04:43:00;;;;;;;10.40;8.60;;;-0.40;92.40;-0.90;98074.00;;;;5000671;28;88984;-60
2021/12/16 04:45:32;;;;;;;10.27;9.18;;;-0.50;92.40;-0.90;98069.00;;;;5017280;28;88306;-59
2021/12/16 04:48:00;;;;;;;8.15;7.30;;;-0.50;92.40;-0.90;98057.00;;;;5016601;28;88598;-61
2021/12/16 04:50:33;;;;;;;8.63;7.72;;;-0.50;92.50;-0.90;98057.00;;;;4985450;28;87373;-59
2021/12/16 04:52:59;;;;;;;9.00;8.10;;;-0.40;92.50;-0.80;98042.00;;;;5018884;28;87538;-62
2021/12/16 04:55:29;;;;;;;9.15;8.23;;;-0.40;92.90;-0.80;98055.00;;;;5001984;28;88509;-62
2021/12/16 04:57:56;;;;;;;8.63;7.72;;;-0.40;92.60;-0.80;98064.00;;;;5036780;28;87129;-62
2021/12/16 05:00:25;;;;;;;9.98;8.32;;;-0.40;92.60;-0.80;98060.00;;;;5037009;28;87321;-62
2021/12/16 05:03:03;;;;;;;9.65;7.93;;;-0.40;92.60;-0.80;98059.00;;;;5033944;28;87618;-62
2021/12/16 05:05:36;;;;;;;8.50;7.50;;;-0.40;92.60;-0.80;98064.00;;;;5003946;28;88165;-61
2021/12/16 05:08:03;;;;;;;9.55;7.38;;;-0.40;92.60;-0.80;98058.00;;;;5020582;28;87524;-59
2021/12/16 05:10:52;;;;;;;6.20;5.60;;;-0.40;92.80;-0.80;98057.00;;;;5010624;28;87136;-60
2021/12/16 05:13:21;;;;;;;9.05;8.13;;;-0.40;92.80;-0.80;98047.00;;;;5019318;28;88636;-65
2021/12/16 05:15:48;;;;;;;7.50;5.72;;;-0.40;92.80;-0.80;98044.00;;;;5027654;28;88663;-59
2021/12/16 05:18:21;;;;;;;7.05;5.88;;;-0.40;92.80;-0.80;98051.00;;;;5016786;28;87188;-59
2021/12/16 05:20:54;;;;;;;7.20;6.50;;;-0.40;92.80;-0.70;98038.00;;;;5016013;28;87279;-60
2021/12/16 05:28:50;;;;;;;7.38;6.00;;;-0.30;92.90;-0.80;98018.00;;;;5018405;28;87883;-59
2021/12/16 05:31:18;;;;;;;6.75;6.03;;;-0.30;92.90;-0.70;98031.00;;;;5017044;28;86674;-61
2021/12/16 05:33:49;;;;;;;6.75;5.97;;;-0.40;92.90;-0.70;98035.00;;;;4999836;28;88964;-59
2021/12/16 05:36:17;;;;;;;7.88;7.07;;;-0.40;93.00;-0.70;98029.00;;;;5016683;28;87342;-59
2021/12/16 05:38:44;;;;;;;7.35;6.53;;;-0.30;93.10;-0.70;98025.00;;;;5015829;28;88313;-59
2021/12/16 05:41:15;;;;;;;6.32;5.35;;;-0.30;93.00;-0.70;98022.00;;;;5016741;28;87293;-60
2021/12/16 05:43:43;;;;;;;7.38;5.63;;;-0.30;92.90;-0.70;98035.00;;;;5011575;28;88479;-60
2021/12/16 05:46:12;;;;;;;8.82;6.65;;;-0.30;92.90;-0.70;98035.00;;;;5007446;28;87375;-60
2021/12/16 05:48:41;;;;;;;28.17;7.25;;;-0.30;92.80;-0.70;98025.00;;;;5017331;28;87430;-60
2021/12/16 05:51:16;;;;;;;8.93;6.20;;;-0.30;92.80;-0.60;98029.00;;;;5017721;28;87144;-60
2021/12/16 05:53:46;;;;;;;8.32;5.75;;;-0.30;92.90;-0.60;98021.00;;;;5005160;28;87652;-59
2021/12/16 05:56:30;;;;;;;7.90;5.80;;;-0.20;92.90;-0.60;98011.00;;;;5010794;28;88230;-60
2021/12/16 05:58:57;;;;;;;8.43;6.47;;;-0.30;92.90;-0.70;98010.00;;;;4994223;28;87169;-59
2021/12/16 06:01:31;;;;;;;7.40;6.25;;;-0.30;92.90;-0.70;98007.00;;;;4977978;28;87462;-60
2021/12/16 06:03:58;;;;;;;7.68;5.72;;;-0.30;92.90;-0.60;98021.00;;;;4995996;28;88627;-60
2021/12/16 06:06:27;;;;;;;6.32;5.32;;;-0.30;92.90;-0.60;98011.00;;;;4996195;28;91056;-60
2021/12/16 06:08:55;;;;;;;6.93;5.47;;;-0.20;92.90;-0.60;98005.00;;;;5007349;28;87387;-59
2021/12/16 06:11:29;;;;;;;8.40;6.80;;;-0.20;92.80;-0.60;98011.00;;;;5014960;28;87334;-58
2021/12/16 06:28:06;;;;;;;10.98;8.15;;;-0.20;92.90;-0.50;97991.00;;;;4997207;28;87403;-60
2021/12/16 06:30:39;;;;;;;8.75;6.80;;;-0.10;92.80;-0.50;97996.00;;;;5001718;28;88261;-60
2021/12/16 06:33:09;;;;;;;8.65;6.75;;;-0.10;92.90;-0.50;97996.00;;;;5016590;28;87442;-60
2021/12/16 06:35:36;;;;;;;8.88;7.00;;;-0.10;92.90;-0.50;97990.00;;;;5013231;28;87645;-61
2021/12/16 06:38:03;;;;;;;8.02;6.65;;;-0.10;92.80;-0.50;97997.00;;;;5000161;28;89555;-62
2021/12/16 06:40:39;;;;;;;8.43;7.05;;;-0.10;92.90;-0.50;97984.00;;;;5001221;28;87383;-61
2021/12/16 06:43:21;;;;;;;14.80;7.35;;;-0.10;92.80;-0.50;97979.00;;;;4995649;28;87165;-62
2021/12/16 06:45:50;;;;;;;10.88;8.10;;;-0.10;92.70;-0.50;97976.00;;;;5001094;28;87652;-61
2021/12/16 06:48:22;;;;;;;6.72;6.03;;;-0.10;92.90;-0.40;97986.00;;;;5003445;28;88455;-62
2021/12/16 06:51:02;;;;;;;7.70;6.47;;;-0.10;92.80;-0.40;97967.00;;;;5016711;28;87642;-61
2021/12/16 06:54:01;;;;;;;8.63;7.72;;;0.00;93.20;-0.40;97969.00;;;;5018688;28;87185;-63
2021/12/16 06:56:35;;;;;;;9.52;7.07;;;0.00;93.20;-0.40;97957.00;;;;5018994;28;89201;-61
2021/12/16 06:59:09;;;;;;;9.65;7.90;;;0.00;92.90;-0.40;97962.00;;;;5023249;28;87763;-60
2021/12/16 07:04:17;;;;;;;7.88;7.07;;;0.00;92.80;-0.40;97968.00;;;;5018678;28;87266;-61
2021/12/16 07:06:43;;;;;;;8.90;6.82;;;0.00;92.80;-0.40;97960.00;;;;5018491;28;88882;-61
2021/12/16 07:09:16;;;;;;;10.05;7.63;;;0.10;92.80;-0.40;97970.00;;;;5024852;28;87847;-61
2021/12/16 07:11:48;;;;;;;10.25;8.15;;;0.10;92.70;-0.30;97964.00;;;;5027895;28;87343;-60
2021/12/16 07:14:17;;;;;;;9.30;7.25;;;0.10;92.70;-0.30;97975.00;;;;5037073;28;87198;-61
2021/12/16 07:16:47;;;;;;;9.65;6.53;;;0.10;92.80;-0.30;97977.00;;;;5026318;28;88749;-61
2021/12/16 07:19:13;;;;;;;9.35;8.35;;;0.10;92.70;-0.30;97971.00;;;;5018800;28;87771;-62
2021/12/16 07:21:42;;;;;;;9.68;8.02;;;0.10;92.70;-0.30;97987.00;;;;5018928;28;88324;-63
2021/12/16 07:24:13;;;;;;;12.27;8.27;;;0.10;92.70;-0.30;97973.00;;;;5015061;28;87343;-63
2021/12/16 07:26:40;;;;;;;9.38;7.90;;;0.10;92.70;-0.30;97986.00;;;;5016949;28;87584;-63
2021/12/16 07:29:08;;;;;;;11.02;8.50;;;0.10;92.80;-0.30;97994.00;;;;5004561;28;88085;-64
2021/12/16 07:31:37;;;;;;;10.10;7.70;;;0.10;92.70;-0.30;97986.00;;;;5023021;28;87292;-63
2021/12/16 07:34:05;;;;;;;13.38;9.80;;;0.10;92.80;-0.30;98001.00;;;;5027095;27;87585;-62
2021/12/16 07:36:33;;;;;;;8.57;7.45;;;0.10;92.70;-0.30;97986.00;;;;5017801;28;87497;-62
2021/12/16 07:39:02;;;;;;;11.48;8.88;;;0.10;92.80;-0.30;97982.00;;;;5017762;28;87219;-61
2021/12/16 07:41:32;;;;;;;12.27;9.82;;;0.10;92.80;-0.30;97982.00;;;;4999138;28;87522;-61
2021/12/16 07:44:11;;;;;;;13.38;9.38;;;0.10;92.80;-0.30;97976.00;;;;5011394;28;87370;-61
2021/12/16 07:46:50;;;;;;;10.38;8.70;;;0.10;92.80;-0.20;97966.00;;;;5017409;28;89582;-61
2021/12/16 07:49:31;;;;;;;16.15;11.30;;;0.20;92.90;-0.20;97975.00;;;;4999037;28;88938;-61
2021/12/16 07:52:00;;;;;;;9.57;8.13;;;0.20;92.90;-0.20;97984.00;;;;4998965;28;87426;-61
2021/12/16 07:54:27;;;;;;;12.15;9.50;;;0.20;92.90;-0.20;97975.00;;;;4999382;28;87307;-61
2021/12/16 07:56:55;;;;;;;11.40;9.90;;;0.20;92.90;-0.20;97975.00;;;;5014066;28;88515;-61
2021/12/16 07:59:24;;;;;;;10.30;9.18;;;0.30;92.90;-0.20;97964.00;;;;5019017;28;87870;-63
2021/12/16 08:01:51;;;;;;;13.23;9.43;;;0.20;92.90;-0.20;97951.00;;;;5019303;28;87268;-62
2021/12/16 08:04:20;;;;;;;11.77;9.65;;;0.30;92.90;-0.20;97957.00;;;;5019596;28;86620;-60
2021/12/16 08:06:50;;;;;;;11.40;9.43;;;0.30;92.90;-0.20;97943.00;;;;5019504;28;88127;-60
2021/12/16 08:09:18;;;;;;;10.07;8.10;;;0.30;92.90;-0.20;97946.00;;;;5018727;28;87742;-61
2021/12/16 08:11:45;;;;;;;14.82;9.35;;;0.30;93.00;-0.10;97947.00;;;;5013927;28;88373;-61
2021/12/16 08:14:12;;;;;;;13.50;10.45;;;0.30;93.00;-0.10;97941.00;;;;5034816;28;87550;-61
2021/12/16 08:16:39;;;;;;;10.70;9.40;;;0.30;93.00;-0.10;97923.00;;;;5028291;28;87573;-61
2021/12/16 08:19:07;;;;;;;12.23;10.30;;;0.30;93.00;-0.10;97930.00;;;;5018847;28;87283;-61
2021/12/16 08:21:35;;;;;;;14.55;10.85;;;0.30;93.00;-0.10;97930.00;;;;5011593;28;87229;-61
2021/12/16 08:24:09;;;;;;;14.40;9.70;;;0.30;93.40;-0.10;97928.00;;;;5022342;28;87262;-61
2021/12/16 08:26:37;;;;;;;15.00;10.77;;;0.30;93.10;-0.10;97911.00;;;;5039105;27;87851;-61
2021/12/16 08:29:04;;;;;;;16.60;10.43;;;0.30;93.10;-0.10;97918.00;;;;5035595;28;88207;-61
2021/12/16 08:31:31;;;;;;;12.98;9.82;;;0.40;93.20;-0.10;97911.00;;;;5017918;28;86981;-61
2021/12/16 08:33:58;;;;;;;12.27;9.63;;;0.30;93.10;-0.10;97913.00;;;;5018443;28;87308;-61
2021/12/16 08:36:25;;;;;;;13.45;10.07;;;0.40;93.20;-0.10;97911.00;;;;5011545;28;88582;-61
2021/12/16 08:38:52;;;;;;;12.85;10.45;;;0.40;93.20;0.00;97908.00;;;;5008629;28;88346;-61
2021/12/16 08:41:26;;;;;;;15.48;10.27;;;0.40;93.20;0.00;97911.00;;;;4998162;28;87492;-61
2021/12/16 08:43:53;;;;;;;13.95;10.48;;;0.40;93.30;0.00;97918.00;;;;5009572;28;87385;-62
2021/12/16 08:46:24;;;;;;;13.95;9.25;;;0.40;93.30;0.00;97911.00;;;;4997989;28;87681;-61
2021/12/16 08:48:50;;;;;;;17.85;10.82;;;0.40;93.20;0.00;97908.00;;;;4998195;28;87220;-60
2021/12/16 08:51:21;;;;;;;18.55;10.45;;;0.40;93.20;0.00;97904.00;;;;5003320;28;87122;-61
2021/12/16 08:53:49;;;;;;;12.00;9.82;;;0.40;93.30;0.00;97911.00;;;;5004149;28;86828;-61
2021/12/16 08:56:17;;;;;;;13.80;10.25;;;0.40;93.30;0.00;97900.00;;;;5021728;28;87797;-61
2021/12/16 08:58:44;;;;;;;14.57;11.55;;;0.40;93.40;0.00;97899.00;;;;5018161;28;87883;-61
2021/12/16 09:01:20;;;;;;;13.30;10.35;;;0.40;93.40;0.00;97891.00;;;;4997673;28;88675;-61
2021/12/16 09:03:47;;;;;;;15.15;11.15;;;0.50;93.40;0.00;97885.00;;;;4998071;28;87340;-61
2021/12/16 09:06:14;;;;;;;12.07;10.00;;;0.50;93.40;0.00;97884.00;;;;4997511;28;87511;-62
2021/12/16 09:08:40;;;;;;;15.45;12.02;;;0.40;93.40;0.00;97883.00;;;;4997308;28;87588;-64
2021/12/16 09:11:09;;;;;;;15.20;10.77;;;0.50;93.40;0.10;97872.00;;;;5002587;28;87410;-62
2021/12/16 09:13:41;;;;;;;20.65;14.15;;;0.40;93.50;0.10;97873.00;;;;5011278;28;87752;-64
2021/12/16 09:16:14;;;;;;;13.85;11.55;;;0.50;93.60;0.00;97867.00;;;;5018404;28;87628;-64
2021/12/16 09:18:41;;;;;;;12.77;10.68;;;0.50;93.70;0.10;97867.00;;;;5019385;28;87590;-61
2021/12/16 09:21:18;;;;;;;18.27;13.95;;;0.50;93.70;0.00;97877.00;;;;5019442;28;87126;-62
2021/12/16 09:23:46;;;;;;;13.75;10.35;;;0.50;93.80;0.10;97864.00;;;;5019411;28;87538;-63
2021/12/16 09:26:14;;;;;;;16.75;13.20;;;0.50;93.90;0.10;97847.00;;;;5012220;28;89080;-62
2021/12/16 09:28:42;;;;;;;25.02;16.05;;;0.50;93.80;0.10;97852.00;;;;5014545;28;88154;-63
2021/12/16 09:31:12;;;;;;;18.90;14.25;;;0.50;93.80;0.10;97844.00;;;;5018303;28;87054;-62
2021/12/16 09:33:43;;;;;;;22.00;16.80;;;0.50;93.90;0.10;97839.00;;;;5005954;28;86934;-62
2021/12/16 09:36:12;;;;;;;16.42;14.65;;;0.50;93.90;0.10;97844.00;;;;5015257;28;88081;-62
2021/12/16 09:38:39;;;;;;;18.15;13.68;;;0.50;93.90;0.10;97854.00;;;;5017855;28;87155;-63
2021/12/16 09:41:05;;;;;;;17.15;12.77;;;0.50;93.90;0.10;97854.00;;;;5019714;28;86893;-62
2021/12/16 09:43:39;;;;;;;21.85;17.00;;;0.50;93.90;0.10;97863.00;;;;5016966;28;86761;-62
2021/12/16 09:46:11;;;;;;;19.65;14.73;;;0.50;93.80;0.10;97850.00;;;;5009894;28;87646;-62
2021/12/16 09:48:38;;;;;;;16.88;13.20;;;0.50;93.90;0.10;97862.00;;;;5016453;28;87650;-63
2021/12/16 09:51:16;;;;;;;16.00;13.63;;;0.60;94.00;0.10;97847.00;;;;5016286;28;88442;-62
2021/12/16 09:53:43;;;;;;;18.67;14.23;;;0.50;94.00;0.10;97839.00;;;;5012743;28;87437;-62
2021/12/16 09:56:10;;;;;;;24.77;17.02;;;0.50;94.00;0.10;97830.00;;;;5018676;28;88055;-62
2021/12/16 09:58:42;;;;;;;33.85;22.98;;;0.50;94.40;0.10;97824.00;;;;5018995;28;87606;-62
2021/12/16 10:01:11;;;;;;;23.70;17.13;;;0.50;94.20;0.10;97824.00;;;;5017300;28;87165;-62
2021/12/16 10:03:40;;;;;;;32.65;21.73;;;0.50;94.20;0.10;97809.00;;;;5017681;28;87387;-63
2021/12/16 10:06:07;;;;;;;28.92;20.02;;;0.60;94.20;0.20;97810.00;;;;5019447;28;87764;-63
2021/12/16 10:08:33;;;;;;;32.00;21.52;;;0.60;94.20;0.20;97814.00;;;;5019156;28;88291;-61
2021/12/16 10:10:59;;;;;;;25.73;18.42;;;0.60;94.20;0.20;97815.00;;;;5018835;28;87146;-64
2021/12/16 10:14:04;;;;;;;21.92;16.38;;;0.60;94.20;0.20;97812.00;;;;5019338;28;87245;-63
2021/12/16 10:19:03;;;;;;;17.75;14.07;;;0.60;94.20;0.20;97803.00;;;;5014599;28;88375;-62
2021/12/16 10:21:30;;;;;;;21.85;15.75;;;0.60;94.20;0.20;97800.00;;;;5017732;28;87557;-62
2021/12/16 10:23:57;;;;;;;20.63;14.75;;;0.60;94.20;0.20;97793.00;;;;5028359;28;87094;-63
2021/12/16 10:26:27;;;;;;;16.83;13.27;;;0.70;94.30;0.20;97792.00;;;;5030299;28;87645;-63
2021/12/16 10:28:59;;;;;;;23.73;16.08;;;0.70;94.30;0.20;97798.00;;;;5016900;28;87466;-62
2021/12/16 10:31:32;;;;;;;;;;;0.70;94.30;0.20;97792.00;;;;5018277;28;87228;-63
2021/12/16 10:33:59;;;;;;;21.17;14.63;;;0.70;94.30;0.20;97793.00;;;;5018208;28;86707;-63
2021/12/16 10:36:35;;;;;;;20.48;12.85;;;0.70;94.30;0.20;97788.00;;;;5018606;28;87710;-64
2021/12/16 10:39:16;;;;;;;14.15;11.82;;;0.70;94.30;0.20;97787.00;;;;5016797;28;87462;-62
2021/12/16 10:41:54;;;;;;;18.40;13.75;;;0.70;94.30;0.20;97787.00;;;;5016989;28;88173;-63
2021/12/16 10:44:33;;;;;;;21.65;15.13;;;0.70;94.30;0.20;97776.00;;;;5017726;28;87191;-62
2021/12/16 10:47:10;;;;;;;15.57;13.40;;;0.70;94.30;0.30;97770.00;;;;5017467;28;87359;-63
2021/12/16 10:49:52;;;;;;;15.18;11.38;;;0.70;94.30;0.30;97770.00;;;;5019003;28;88047;-64
2021/12/16 10:52:26;;;;;;;20.43;13.07;;;0.70;94.30;0.30;97772.00;;;;4998657;28;87034;-63
2021/12/16 10:54:56;;;;;;;17.77;13.57;;;0.80;94.30;0.30;97770.00;;;;5000693;28;87634;-63
2021/12/16 10:57:31;;;;;;;17.05;13.18;;;0.70;94.30;0.30;97760.00;;;;5018802;28;89585;-63
2021/12/16 11:00:06;;;;;;;23.33;16.50;;;0.70;94.30;0.30;97766.00;;;;5019112;28;88215;-64
2021/12/16 11:02:37;;;;;;;20.65;14.45;;;0.70;94.30;0.30;97758.00;;;;5019081;28;87458;-64
2021/12/16 11:05:17;;;;;;;18.00;14.52;;;0.70;94.30;0.30;97765.00;;;;5012686;28;87770;-63
2021/12/16 11:07:50;;;;;;;36.40;19.58;;;0.70;94.30;0.30;97749.00;;;;5012285;28;88669;-63
2021/12/16 11:10:29;;;;;;;19.02;14.77;;;0.70;94.30;0.30;97751.00;;;;5009079;28;88345;-62
2021/12/16 11:13:02;;;;;;;19.40;13.73;;;0.70;94.30;0.30;97743.00;;;;5011461;28;87293;-61
2021/12/16 11:15:40;;;;;;;20.05;15.52;;;0.70;94.30;0.30;97739.00;;;;5009628;28;86978;-62
2021/12/16 11:18:20;;;;;;;18.25;13.43;;;0.80;94.30;0.30;97726.00;;;;5007191;28;89935;-62
2021/12/16 11:21:06;;;;;;;23.83;16.20;;;0.80;94.30;0.30;97720.00;;;;5018732;28;87288;-62
2021/12/16 11:23:40;;;;;;;27.10;17.77;;;0.70;94.30;0.30;97726.00;;;;5024412;28;87689;-62
2021/12/16 11:26:14;;;;;;;16.02;13.75;;;0.70;94.30;0.30;97714.00;;;;5036945;28;86202;-62
2021/12/16 11:28:44;;;;;;;18.73;13.63;;;0.80;94.30;0.30;97718.00;;;;5015948;28;88159;-66
2021/12/16 11:31:20;;;;;;;30.00;16.63;;;0.70;94.30;0.30;97712.00;;;;5001524;28;89414;-62
2021/12/16 11:33:56;;;;;;;21.60;14.68;;;0.70;94.30;0.30;97711.00;;;;5010892;28;87947;-62
2021/12/16 11:36:43;;;;;;;26.42;17.25;;;0.70;94.30;0.30;97707.00;;;;5015391;28;87007;-62
2021/12/16 11:39:20;;;;;;;21.20;15.88;;;0.70;94.30;0.30;97706.00;;;;5018085;28;89664;-63
2021/12/16 11:42:03;;;;;;;27.58;17.70;;;0.70;94.30;0.30;97691.00;;;;5022072;28;87855;-59
2021/12/16 11:44:40;;;;;;;26.08;16.08;;;0.70;94.40;0.30;97696.00;;;;5022525;28;86938;-63
2021/12/16 11:47:20;;;;;;;27.02;17.85;;;0.70;94.50;0.30;97713.00;;;;5013332;28;87313;-64
2021/12/16 11:49:55;;;;;;;35.20;20.02;;;0.70;94.60;0.30;97693.00;;;;5021383;28;87830;-63
2021/12/16 11:52:27;;;;;;;26.88;16.92;;;0.70;94.70;0.30;97707.00;;;;5022261;28;87465;-61
2021/12/16 11:55:18;;;;;;;58.03;24.15;;;0.70;94.70;0.30;97692.00;;;;5021442;28;87573;-62
2021/12/16 11:57:51;;;;;;;22.13;14.73;;;0.80;94.70;0.30;97697.00;;;;5001349;28;87073;-62
2021/12/16 12:00:25;;;;;;;31.45;19.35;;;0.70;94.80;0.30;97704.00;;;;5005908;28;88683;-61
2021/12/16 12:03:01;;;;;;;22.80;15.45;;;0.70;94.70;0.30;97704.00;;;;5020799;28;89005;-63
2021/12/16 12:05:47;;;;;;;21.88;15.15;;;0.70;94.70;0.30;97702.00;;;;5014078;28;87157;-63
2021/12/16 12:08:20;;;;;;;24.50;15.85;;;0.70;94.70;0.30;97697.00;;;;5021153;28;87334;-62
2021/12/16 12:11:09;;;;;;;17.52;12.23;;;0.70;94.70;0.30;97695.00;;;;5020000;28;87815;-63
2021/12/16 12:13:43;;;;;;;17.10;12.50;;;0.70;94.70;0.30;97701.00;;;;5014600;28;89377;-64
2021/12/16 12:16:42;;;;;;;19.00;13.10;;;0.70;94.70;0.30;97699.00;;;;5026710;28;87411;-64
2021/12/16 12:19:21;;;;;;;22.65;13.68;;;0.70;94.70;0.30;97689.00;;;;5033975;27;86499;-62
2021/12/16 12:22:00;;;;;;;13.48;9.35;;;0.70;94.60;0.30;97697.00;;;;5004407;28;87700;-62
2021/12/16 12:24:46;;;;;;;14.75;9.85;;;0.70;94.60;0.40;97700.00;;;;5035614;28;87380;-63
2021/12/16 12:27:19;;;;;;;18.58;11.20;;;0.70;94.40;0.40;97699.00;;;;5042507;27;88318;-64
2021/12/16 12:29:58;;;;;;;18.90;12.70;;;0.70;94.60;0.40;97692.00;;;;5041575;28;87362;-63
2021/12/16 12:32:42;;;;;;;21.92;11.48;;;0.70;94.60;0.40;97682.00;;;;5001901;28;87327;-62
2021/12/16 12:35:20;;;;;;;13.63;10.70;;;0.70;94.50;0.40;97680.00;;;;5018216;28;88078;-61
2021/12/16 12:37:51;;;;;;;21.73;13.75;;;0.70;94.50;0.40;97674.00;;;;5020498;28;87478;-61
2021/12/16 12:40:27;;;;;;;15.07;11.13;;;0.70;94.50;0.40;97676.00;;;;5021104;28;87030;-61
2021/12/16 12:42:56;;;;;;;13.02;9.68;;;0.70;94.60;0.40;97664.00;;;;5021224;28;87652;-61
2021/12/16 12:45:38;;;;;;;12.60;10.00;;;0.80;94.70;0.40;97652.00;;;;5003514;28;88057;-61
2021/12/16 12:48:11;;;;;;;18.98;11.90;;;0.70;94.70;0.40;97660.00;;;;5021028;28;87004;-61
2021/12/16 12:50:41;;;;;;;22.15;12.48;;;0.70;94.50;0.40;97654.00;;;;5019930;28;87228;-62
2021/12/16 12:53:23;;;;;;;11.80;8.43;;;0.70;94.50;0.40;97655.00;;;;5019962;28;88804;-60
2021/12/16 12:55:54;;;;;;;14.45;9.45;;;0.70;94.60;0.40;97648.00;;;;5020121;28;88227;-61
2021/12/16 12:58:25;;;;;;;13.07;8.35;;;0.70;94.50;0.40;97648.00;;;;5021578;28;87409;-62
2021/12/16 13:01:00;;;;;;;15.60;9.48;;;0.70;94.60;0.40;97646.00;;;;5022138;28;86910;-61
2021/12/16 13:03:38;;;;;;;17.45;10.88;;;0.80;94.40;0.40;97651.00;;;;5021933;28;87753;-61
2021/12/16 13:06:11;;;;;;;10.70;7.10;;;0.80;94.40;0.40;97646.00;;;;5021046;28;87292;-62
2021/12/16 13:08:42;;;;;;;17.10;10.10;;;0.70;94.40;0.40;97634.00;;;;5021401;28;86980;-61
2021/12/16 13:11:19;;;;;;;13.23;8.68;;;0.80;94.50;0.40;97638.00;;;;5027474;28;86204;-61
2021/12/16 13:14:21;;;;;;;11.98;8.43;;;0.70;94.40;0.40;97650.00;;;;5041269;28;87763;-61
2021/12/16 13:28:58;;;;;;;13.95;9.02;;;0.80;94.40;0.40;97634.00;;;;5001483;28;87670;-60
2021/12/16 13:31:39;;;;;;;17.02;8.93;;;0.80;94.30;0.50;97643.00;;;;5020027;28;86968;-61
2021/12/16 13:34:25;;;;;;;10.40;7.63;;;0.80;94.40;0.50;97638.00;;;;5020862;28;87527;-61
2021/12/16 13:36:56;;;;;;;13.65;9.95;;;0.90;94.40;0.50;97640.00;;;;5020885;28;87614;-62
2021/12/16 13:39:28;;;;;;;14.88;9.50;;;0.80;94.30;0.50;97635.00;;;;5018693;28;87376;-61
2021/12/16 13:42:12;;;;;;;16.83;8.68;;;0.80;94.30;0.50;97628.00;;;;5020680;28;87008;-61
2021/12/16 13:44:47;;;;;;;10.20;7.63;;;0.80;94.30;0.50;97630.00;;;;5019094;28;87018;-61
2021/12/16 14:02:50;;;;;;;9.97;7.40;;;0.90;94.20;0.60;97610.00;;;;5016852;28;88433;-61
2021/12/16 14:05:49;;;;;;;15.77;9.48;;;1.00;94.20;0.60;97600.00;;;;5019690;28;87292;-63
2021/12/16 14:08:52;;;;;;;16.65;8.13;;;0.90;94.10;0.60;97604.00;;;;5020779;28;86649;-62
2021/12/16 14:12:53;;;;;;;14.82;9.20;;;0.90;94.20;0.60;97607.00;;;;5010249;28;87975;-61
2021/12/16 14:23:34;;;;;;;14.48;9.88;;;0.90;94.10;0.60;97566.00;;;;5019276;28;87418;-61
2021/12/16 14:42:42;;;;;;;11.18;7.22;;;1.00;94.30;0.60;97567.00;;;;5015421;28;86975;-61
2021/12/16 14:45:42;;;;;;;9.55;7.30;;;1.00;94.40;0.60;97579.00;;;;5000228;28;87900;-61
2021/12/16 14:51:04;;;;;;;10.35;8.88;;;0.90;94.10;0.60;97556.00;;;;5020287;28;87410;-62
2021/12/16 14:53:51;;;;;;;9.20;7.40;;;1.00;94.30;0.60;97559.00;;;;5020408;28;86936;-61
2021/12/16 14:56:33;;;;;;;8.85;5.95;;;1.00;94.20;0.70;97567.00;;;;5015355;28;88585;-62
2021/12/16 14:59:13;;;;;;;9.00;6.93;;;1.00;94.30;0.70;97548.00;;;;5020328;28;87404;-61